sensor_id;sensor_type;location;lat;lon;timestamp;pressure;altitude;pressure_sealevel;temperature;humidity
57232;BME280;43488;46.934;8.276;2023-05-24T00:01:32;96516.00;;;16.26;92.49
57232;BME280;43488;46.934;8.276;2023-05-24T00:04:03;96515.81;;;16.28;92.41
57232;BME280;43488;46.934;8.276;2023-05-24T00:06:30;96511.91;;;16.35;92.13
57232;BME280;43488;46.934;8.276;2023-05-24T00:09:04;96509.63;;;16.44;91.78
57232;BME280;43488;46.934;8.276;2023-05-24T00:11:32;96514.34;;;16.37;92.28
57232;BME280;43488;46.934;8.276;2023-05-24T00:14:00;96514.97;;;16.44;91.32
57232;BME280;43488;46.934;8.276;2023-05-24T00:16:27;96510.94;;;16.25;92.18
57232;BME280;43488;46.934;8.276;2023-05-24T00:18:55;96507.34;;;16.31;91.47
57232;BME280;43488;46.934;8.276;2023-05-24T00:21:25;96513.16;;;16.11;92.55
57232;BME280;43488;46.934;8.276;2023-05-24T00:23:53;96512.56;;;16.09;92.59
57232;BME280;43488;46.934;8.276;2023-05-24T00:26:20;96509.91;;;16.09;92.44
57232;BME280;43488;46.934;8.276;2023-05-24T00:28:48;96524.22;;;16.08;92.74
57232;BME280;43488;46.934;8.276;2023-05-24T00:31:15;96524.22;;;16.08;92.92
57232;BME280;43488;46.934;8.276;2023-05-24T00:33:42;96519.06;;;16.18;93.11
57232;BME280;43488;46.934;8.276;2023-05-24T00:36:10;96516.91;;;16.15;92.42
57232;BME280;43488;46.934;8.276;2023-05-24T00:38:37;96520.53;;;16.09;92.42
57232;BME280;43488;46.934;8.276;2023-05-24T00:41:04;96520.47;;;16.04;93.26
57232;BME280;43488;46.934;8.276;2023-05-24T00:43:35;96529.13;;;15.99;94.59
57232;BME280;43488;46.934;8.276;2023-05-24T00:46:20;96529.31;;;16.09;94.10
57232;BME280;43488;46.934;8.276;2023-05-24T00:48:50;96517.25;;;16.02;94.19
57232;BME280;43488;46.934;8.276;2023-05-24T00:51:19;96532.78;;;15.93;94.89
57232;BME280;43488;46.934;8.276;2023-05-24T00:53:47;96518.44;;;15.94;95.59
57232;BME280;43488;46.934;8.276;2023-05-24T00:56:16;96519.34;;;15.83;96.00
57232;BME280;43488;46.934;8.276;2023-05-24T00:58:44;96518.75;;;15.81;96.46
57232;BME280;43488;46.934;8.276;2023-05-24T01:01:11;96517.38;;;15.78;96.23
57232;BME280;43488;46.934;8.276;2023-05-24T01:03:39;96517.88;;;15.75;97.21
57232;BME280;43488;46.934;8.276;2023-05-24T01:06:08;96526.50;;;15.82;98.00
57232;BME280;43488;46.934;8.276;2023-05-24T01:08:43;96527.19;;;15.78;98.10
57232;BME280;43488;46.934;8.276;2023-05-24T01:11:52;96527.50;;;15.81;97.67
57232;BME280;43488;46.934;8.276;2023-05-24T01:17:26;96518.69;;;15.92;97.87
57232;BME280;43488;46.934;8.276;2023-05-24T01:20:03;96527.84;;;15.85;97.85
57232;BME280;43488;46.934;8.276;2023-05-24T01:28:00;96512.63;;;15.80;99.13
57232;BME280;43488;46.934;8.276;2023-05-24T01:30:30;96516.25;;;15.74;99.40
57232;BME280;43488;46.934;8.276;2023-05-24T01:32:58;96517.06;;;15.75;99.46
57232;BME280;43488;46.934;8.276;2023-05-24T01:35:26;96507.97;;;15.71;99.99
57232;BME280;43488;46.934;8.276;2023-05-24T01:37:53;96509.25;;;15.68;100.00
57232;BME280;43488;46.934;8.276;2023-05-24T01:40:20;96506.88;;;15.55;100.00
57232;BME280;43488;46.934;8.276;2023-05-24T01:43:26;96505.06;;;15.72;100.00
57232;BME280;43488;46.934;8.276;2023-05-24T01:46:36;96509.50;;;15.67;100.00
57232;BME280;43488;46.934;8.276;2023-05-24T01:49:26;96513.44;;;15.64;100.00
57232;BME280;43488;46.934;8.276;2023-05-24T01:52:12;96503.06;;;15.51;100.00
57232;BME280;43488;46.934;8.276;2023-05-24T01:54:47;96503.63;;;15.53;100.00
57232;BME280;43488;46.934;8.276;2023-05-24T01:57:19;96503.19;;;15.56;100.00
57232;BME280;43488;46.934;8.276;2023-05-24T01:59:49;96502.13;;;15.57;100.00
57232;BME280;43488;46.934;8.276;2023-05-24T02:02:17;96502.13;;;15.57;100.00
57232;BME280;43488;46.934;8.276;2023-05-24T02:04:44;96504.28;;;15.60;100.00
57232;BME280;43488;46.934;8.276;2023-05-24T02:07:12;96513.59;;;15.46;100.00
57232;BME280;43488;46.934;8.276;2023-05-24T02:09:39;96507.47;;;15.45;100.00
57232;BME280;43488;46.934;8.276;2023-05-24T02:12:10;96505.31;;;15.42;100.00
57232;BME280;43488;46.934;8.276;2023-05-24T02:14:38;96503.69;;;15.41;100.00
57232;BME280;43488;46.934;8.276;2023-05-24T02:17:05;96507.47;;;15.45;100.00
57232;BME280;43488;46.934;8.276;2023-05-24T02:19:32;96505.47;;;15.52;100.00
57232;BME280;43488;46.934;8.276;2023-05-24T02:22:02;96503.19;;;15.56;100.00
57232;BME280;43488;46.934;8.276;2023-05-24T02:24:31;96500.19;;;15.52;100.00
57232;BME280;43488;46.934;8.276;2023-05-24T02:26:58;96499.84;;;15.49;100.00
57232;BME280;43488;46.934;8.276;2023-05-24T02:29:26;96496.25;;;15.55;100.00
57232;BME280;43488;46.934;8.276;2023-05-24T02:31:53;96502.13;;;15.57;100.00
57232;BME280;43488;46.934;8.276;2023-05-24T02:34:23;96501.88;;;15.58;100.00
57232;BME280;43488;46.934;8.276;2023-05-24T02:36:51;96501.56;;;15.55;100.00
57232;BME280;43488;46.934;8.276;2023-05-24T02:39:23;96502.47;;;15.60;100.00
57232;BME280;43488;46.934;8.276;2023-05-24T02:41:50;96499.13;;;15.65;100.00
57232;BME280;43488;46.934;8.276;2023-05-24T02:44:18;96494.22;;;15.74;100.00
57232;BME280;43488;46.934;8.276;2023-05-24T02:46:45;96495.50;;;15.71;100.00
57232;BME280;43488;46.934;8.276;2023-05-24T02:49:12;96497.50;;;15.64;100.00
57232;BME280;43488;46.934;8.276;2023-05-24T02:51:40;96498.19;;;15.59;100.00
57232;BME280;43488;46.934;8.276;2023-05-24T02:54:08;96505.72;;;15.51;100.00
57232;BME280;43488;46.934;8.276;2023-05-24T02:56:35;96498.81;;;15.50;100.00
57232;BME280;43488;46.934;8.276;2023-05-24T02:59:03;96491.75;;;15.55;100.00
57232;BME280;43488;46.934;8.276;2023-05-24T03:01:32;96499.13;;;15.65;100.00
57232;BME280;43488;46.934;8.276;2023-05-24T03:04:02;96499.38;;;15.63;100.00
57232;BME280;43488;46.934;8.276;2023-05-24T03:06:29;96497.06;;;15.55;100.00
57232;BME280;43488;46.934;8.276;2023-05-24T03:08:56;96503.19;;;15.56;100.00
57232;BME280;43488;46.934;8.276;2023-05-24T03:11:25;96499.81;;;15.60;100.00
57232;BME280;43488;46.934;8.276;2023-05-24T03:13:53;96502.78;;;15.35;100.00
57232;BME280;43488;46.934;8.276;2023-05-24T03:16:21;96506.47;;;15.34;100.00
57232;BME280;43488;46.934;8.276;2023-05-24T03:18:49;96500.34;;;15.46;100.00
57232;BME280;43488;46.934;8.276;2023-05-24T03:21:18;96493.50;;;15.50;100.00
57232;BME280;43488;46.934;8.276;2023-05-24T03:23:47;96508.69;;;15.26;100.00
57232;BME280;43488;46.934;8.276;2023-05-24T03:26:14;96504.38;;;15.08;100.00
57232;BME280;43488;46.934;8.276;2023-05-24T03:28:41;96509.31;;;15.16;100.00
57232;BME280;43488;46.934;8.276;2023-05-24T03:31:08;96507.34;;;15.23;100.00
57232;BME280;43488;46.934;8.276;2023-05-24T03:33:36;96507.28;;;15.35;100.00
57232;BME280;43488;46.934;8.276;2023-05-24T03:36:07;96505.22;;;15.37;100.00
57232;BME280;43488;46.934;8.276;2023-05-24T03:38:38;96510.03;;;15.40;100.00
57232;BME280;43488;46.934;8.276;2023-05-24T03:41:05;96505.66;;;15.46;100.00
57232;BME280;43488;46.934;8.276;2023-05-24T03:43:33;96511.78;;;15.34;100.00
57232;BME280;43488;46.934;8.276;2023-05-24T03:46:00;96515.59;;;15.39;100.00
57232;BME280;43488;46.934;8.276;2023-05-24T03:48:28;96513.31;;;15.30;100.00
57232;BME280;43488;46.934;8.276;2023-05-24T03:50:55;96512.84;;;15.33;100.00
57232;BME280;43488;46.934;8.276;2023-05-24T03:53:23;96513.88;;;15.32;100.00
57232;BME280;43488;46.934;8.276;2023-05-24T03:55:50;96518.69;;;15.35;100.00
57232;BME280;43488;46.934;8.276;2023-05-24T03:58:18;96515.03;;;15.36;100.00
57232;BME280;43488;46.934;8.276;2023-05-24T04:00:46;96519.91;;;15.28;100.00
57232;BME280;43488;46.934;8.276;2023-05-24T04:03:13;96522.19;;;15.24;100.00
57232;BME280;43488;46.934;8.276;2023-05-24T04:05:40;96518.31;;;15.15;100.00
57232;BME280;43488;46.934;8.276;2023-05-24T04:08:08;96519.72;;;15.06;100.00
57232;BME280;43488;46.934;8.276;2023-05-24T04:10:35;96522.28;;;15.01;100.00
57232;BME280;43488;46.934;8.276;2023-05-24T04:13:02;96515.94;;;15.02;100.00
57232;BME280;43488;46.934;8.276;2023-05-24T04:15:29;96520.53;;;15.06;100.00
57232;BME280;43488;46.934;8.276;2023-05-24T04:17:59;96519.84;;;14.99;100.00
57232;BME280;43488;46.934;8.276;2023-05-24T04:20:26;96521.81;;;15.04;100.00
57232;BME280;43488;46.934;8.276;2023-05-24T04:22:55;96527.31;;;15.14;100.00
57232;BME280;43488;46.934;8.276;2023-05-24T04:25:22;96519.53;;;14.96;100.00
57232;BME280;43488;46.934;8.276;2023-05-24T04:27:50;96522.84;;;15.03;100.00
57232;BME280;43488;46.934;8.276;2023-05-24T04:30:19;96528.16;;;15.03;100.00
57232;BME280;43488;46.934;8.276;2023-05-24T04:32:47;96526.75;;;15.12;100.00
57232;BME280;43488;46.934;8.276;2023-05-24T04:35:14;96528.47;;;15.18;100.00
57232;BME280;43488;46.934;8.276;2023-05-24T04:37:42;96528.00;;;15.21;100.00
57232;BME280;43488;46.934;8.276;2023-05-24T04:40:11;96526.56;;;15.30;100.00
57232;BME280;43488;46.934;8.276;2023-05-24T04:42:39;96525.09;;;15.23;100.00
57232;BME280;43488;46.934;8.276;2023-05-24T04:45:07;96520.50;;;15.18;100.00
57232;BME280;43488;46.934;8.276;2023-05-24T04:47:35;96517.88;;;15.18;100.00
57232;BME280;43488;46.934;8.276;2023-05-24T04:50:03;96514.16;;;15.19;100.00
57232;BME280;43488;46.934;8.276;2023-05-24T04:52:31;96510.22;;;15.22;100.00
57232;BME280;43488;46.934;8.276;2023-05-24T04:54:59;96519.47;;;15.19;100.00
57232;BME280;43488;46.934;8.276;2023-05-24T04:57:27;96522.19;;;15.24;100.00
57232;BME280;43488;46.934;8.276;2023-05-24T04:59:54;96525.78;;;15.30;100.00
57232;BME280;43488;46.934;8.276;2023-05-24T05:02:22;96521.84;;;15.32;100.00
57232;BME280;43488;46.934;8.276;2023-05-24T05:04:49;96518.63;;;15.30;100.00
57232;BME280;43488;46.934;8.276;2023-05-24T05:07:16;96527.19;;;15.21;100.00
57232;BME280;43488;46.934;8.276;2023-05-24T05:09:44;96525.78;;;15.30;100.00
57232;BME280;43488;46.934;8.276;2023-05-24T05:12:12;96522.34;;;15.18;100.00
57232;BME280;43488;46.934;8.276;2023-05-24T05:14:40;96521.16;;;15.25;100.00
57232;BME280;43488;46.934;8.276;2023-05-24T05:17:08;96523.50;;;15.22;100.00
57232;BME280;43488;46.934;8.276;2023-05-24T05:19:35;96527.50;;;15.24;100.00
57232;BME280;43488;46.934;8.276;2023-05-24T05:22:03;96529.84;;;15.21;100.00
57232;BME280;43488;46.934;8.276;2023-05-24T05:24:30;96524.16;;;15.29;100.00
57232;BME280;43488;46.934;8.276;2023-05-24T05:26:58;96526.38;;;15.20;100.00
57232;BME280;43488;46.934;8.276;2023-05-24T05:29:25;96530.66;;;15.21;100.00
57232;BME280;43488;46.934;8.276;2023-05-24T05:31:52;96532.13;;;15.29;100.00
57232;BME280;43488;46.934;8.276;2023-05-24T05:34:20;96531.31;;;15.28;100.00
57232;BME280;43488;46.934;8.276;2023-05-24T05:36:47;96532.69;;;15.31;100.00
57232;BME280;43488;46.934;8.276;2023-05-24T05:39:15;96534.47;;;15.14;100.00
57232;BME280;43488;46.934;8.276;2023-05-24T05:41:42;96527.06;;;15.27;100.00
57232;BME280;43488;46.934;8.276;2023-05-24T05:44:11;96527.06;;;15.27;100.00
57232;BME280;43488;46.934;8.276;2023-05-24T05:46:38;96531.88;;;15.30;100.00
57232;BME280;43488;46.934;8.276;2023-05-24T05:49:07;96533.16;;;15.28;100.00
57232;BME280;43488;46.934;8.276;2023-05-24T05:51:35;96545.13;;;15.30;100.00
57232;BME280;43488;46.934;8.276;2023-05-24T05:54:05;96542.25;;;15.32;100.00
57232;BME280;43488;46.934;8.276;2023-05-24T05:56:32;96536.69;;;15.33;100.00
57232;BME280;43488;46.934;8.276;2023-05-24T05:59:01;96540.72;;;15.36;100.00
57232;BME280;43488;46.934;8.276;2023-05-24T06:01:29;96541.56;;;15.36;100.00
57232;BME280;43488;46.934;8.276;2023-05-24T06:03:57;96545.78;;;15.09;100.00
57232;BME280;43488;46.934;8.276;2023-05-24T06:06:24;96546.91;;;15.13;100.00
57232;BME280;43488;46.934;8.276;2023-05-24T06:08:52;96548.31;;;15.04;100.00
57232;BME280;43488;46.934;8.276;2023-05-24T06:11:22;96544.06;;;15.03;100.00
57232;BME280;43488;46.934;8.276;2023-05-24T06:13:49;96546.34;;;14.99;100.00
57232;BME280;43488;46.934;8.276;2023-05-24T06:16:16;96553.91;;;14.91;100.00
57232;BME280;43488;46.934;8.276;2023-05-24T06:18:45;96547.56;;;14.92;100.00
57232;BME280;43488;46.934;8.276;2023-05-24T06:21:15;96557.44;;;14.96;100.00
57232;BME280;43488;46.934;8.276;2023-05-24T06:23:43;96551.13;;;14.86;100.00
57232;BME280;43488;46.934;8.276;2023-05-24T06:26:10;96560.31;;;14.95;100.00
57232;BME280;43488;46.934;8.276;2023-05-24T06:28:38;96557.94;;;14.82;100.00
57232;BME280;43488;46.934;8.276;2023-05-24T06:31:05;96555.84;;;14.84;100.00
57232;BME280;43488;46.934;8.276;2023-05-24T06:33:33;96556.91;;;14.83;100.00
57232;BME280;43488;46.934;8.276;2023-05-24T06:36:01;96556.19;;;14.87;100.00
57232;BME280;43488;46.934;8.276;2023-05-24T06:38:28;96557.00;;;14.88;100.00
57232;BME280;43488;46.934;8.276;2023-05-24T06:40:55;96559.19;;;14.91;100.00
57232;BME280;43488;46.934;8.276;2023-05-24T06:43:23;96561.03;;;14.78;100.00
57232;BME280;43488;46.934;8.276;2023-05-24T06:45:51;96559.75;;;14.93;100.00
57232;BME280;43488;46.934;8.276;2023-05-24T06:48:18;96560.91;;;14.97;100.00
57232;BME280;43488;46.934;8.276;2023-05-24T06:50:46;96553.66;;;14.80;100.00
57232;BME280;43488;46.934;8.276;2023-05-24T06:53:14;96559.75;;;14.93;100.00
57232;BME280;43488;46.934;8.276;2023-05-24T06:55:41;96565.31;;;14.91;100.00
57232;BME280;43488;46.934;8.276;2023-05-24T06:58:08;96564.69;;;14.89;100.00
57232;BME280;43488;46.934;8.276;2023-05-24T07:00:41;96565.66;;;14.83;100.00
57232;BME280;43488;46.934;8.276;2023-05-24T07:03:09;96559.66;;;14.88;100.00
57232;BME280;43488;46.934;8.276;2023-05-24T07:05:36;96561.59;;;14.92;100.00
57232;BME280;43488;46.934;8.276;2023-05-24T07:08:04;96562.53;;;14.86;100.00
57232;BME280;43488;46.934;8.276;2023-05-24T07:10:31;96564.50;;;14.91;100.00
57232;BME280;43488;46.934;8.276;2023-05-24T07:12:59;96565.75;;;14.88;100.00
57232;BME280;43488;46.934;8.276;2023-05-24T07:15:29;96563.78;;;14.95;100.00
57232;BME280;43488;46.934;8.276;2023-05-24T07:17:57;96569.53;;;15.04;100.00
57232;BME280;43488;46.934;8.276;2023-05-24T07:20:25;96561.91;;;15.07;100.00
57232;BME280;43488;46.934;8.276;2023-05-24T07:22:53;96562.34;;;15.16;100.00
57232;BME280;43488;46.934;8.276;2023-05-24T07:25:21;96575.38;;;15.18;100.00
57232;BME280;43488;46.934;8.276;2023-05-24T07:27:49;96575.28;;;15.13;100.00
57232;BME280;43488;46.934;8.276;2023-05-24T07:30:21;96571.97;;;14.94;100.00
57232;BME280;43488;46.934;8.276;2023-05-24T07:32:48;96580.13;;;15.04;100.00
57232;BME280;43488;46.934;8.276;2023-05-24T07:35:16;96571.84;;;14.89;100.00
57232;BME280;43488;46.934;8.276;2023-05-24T07:37:45;96576.03;;;14.85;100.00
57232;BME280;43488;46.934;8.276;2023-05-24T07:40:12;96572.22;;;14.69;100.00
57232;BME280;43488;46.934;8.276;2023-05-24T07:42:40;96575.44;;;14.94;100.00
57232;BME280;43488;46.934;8.276;2023-05-24T07:45:08;96572.88;;;15.11;100.00
57232;BME280;43488;46.934;8.276;2023-05-24T07:47:37;96574.13;;;15.20;100.00
57232;BME280;43488;46.934;8.276;2023-05-24T07:50:08;96573.91;;;15.10;100.00
57232;BME280;43488;46.934;8.276;2023-05-24T07:52:40;96570.06;;;15.18;100.00
57232;BME280;43488;46.934;8.276;2023-05-24T07:55:08;96572.34;;;15.26;100.00
57232;BME280;43488;46.934;8.276;2023-05-24T07:57:35;96570.38;;;15.33;100.00
57232;BME280;43488;46.934;8.276;2023-05-24T08:00:03;96566.91;;;15.32;100.00
57232;BME280;43488;46.934;8.276;2023-05-24T08:02:36;96574.50;;;15.41;100.00
57232;BME280;43488;46.934;8.276;2023-05-24T08:05:04;96574.38;;;15.47;100.00
57232;BME280;43488;46.934;8.276;2023-05-24T08:07:32;96580.63;;;15.41;100.00
57232;BME280;43488;46.934;8.276;2023-05-24T08:10:00;96575.72;;;15.21;100.00
57232;BME280;43488;46.934;8.276;2023-05-24T08:12:28;96575.06;;;15.43;100.00
57232;BME280;43488;46.934;8.276;2023-05-24T08:14:56;96581.34;;;15.36;100.00
57232;BME280;43488;46.934;8.276;2023-05-24T08:17:23;96578.28;;;15.45;100.00
57232;BME280;43488;46.934;8.276;2023-05-24T08:19:51;96580.38;;;15.43;100.00
57232;BME280;43488;46.934;8.276;2023-05-24T08:22:18;96576.72;;;15.32;100.00
57232;BME280;43488;46.934;8.276;2023-05-24T08:24:46;96576.13;;;15.42;100.00
57232;BME280;43488;46.934;8.276;2023-05-24T08:27:13;96583.47;;;15.51;100.00
57232;BME280;43488;46.934;8.276;2023-05-24T08:29:40;96585.31;;;15.51;100.00
57232;BME280;43488;46.934;8.276;2023-05-24T08:32:08;96593.13;;;15.29;100.00
57232;BME280;43488;46.934;8.276;2023-05-24T08:34:36;96584.94;;;15.30;100.00
57232;BME280;43488;46.934;8.276;2023-05-24T08:37:05;96586.22;;;15.28;100.00
57232;BME280;43488;46.934;8.276;2023-05-24T08:39:33;96585.00;;;15.47;100.00
57232;BME280;43488;46.934;8.276;2023-05-24T08:42:02;96591.44;;;15.51;100.00
57232;BME280;43488;46.934;8.276;2023-05-24T08:44:31;96582.28;;;15.59;100.00
57232;BME280;43488;46.934;8.276;2023-05-24T08:47:05;96591.09;;;15.48;99.47
57232;BME280;43488;46.934;8.276;2023-05-24T08:49:36;96595.59;;;15.47;100.00
57232;BME280;43488;46.934;8.276;2023-05-24T08:52:05;96595.34;;;15.60;100.00
57232;BME280;43488;46.934;8.276;2023-05-24T08:54:37;96591.41;;;15.63;100.00
57232;BME280;43488;46.934;8.276;2023-05-24T08:57:06;96591.28;;;15.58;100.00
57232;BME280;43488;46.934;8.276;2023-05-24T08:59:33;96591.28;;;15.58;100.00
57232;BME280;43488;46.934;8.276;2023-05-24T09:02:01;96602.88;;;15.00;100.00
57232;BME280;43488;46.934;8.276;2023-05-24T09:04:31;96602.25;;;14.98;100.00
57232;BME280;43488;46.934;8.276;2023-05-24T09:07:00;96602.72;;;15.18;100.00
57232;BME280;43488;46.934;8.276;2023-05-24T09:09:28;96600.06;;;15.18;100.00
57232;BME280;43488;46.934;8.276;2023-05-24T09:11:58;96601.63;;;15.31;100.00
57232;BME280;43488;46.934;8.276;2023-05-24T09:14:28;96594.44;;;15.43;100.00
57232;BME280;43488;46.934;8.276;2023-05-24T09:16:56;96600.84;;;15.30;100.00
57232;BME280;43488;46.934;8.276;2023-05-24T09:19:23;96594.81;;;15.47;100.00
57232;BME280;43488;46.934;8.276;2023-05-24T09:21:54;96601.84;;;15.41;100.00
57232;BME280;43488;46.934;8.276;2023-05-24T09:24:23;96593.41;;;15.44;100.00
57232;BME280;43488;46.934;8.276;2023-05-24T09:26:51;96602.69;;;15.30;100.00
57232;BME280;43488;46.934;8.276;2023-05-24T09:29:21;96604.53;;;15.29;100.00
57232;BME280;43488;46.934;8.276;2023-05-24T09:31:54;96606.19;;;15.19;99.97
57232;BME280;43488;46.934;8.276;2023-05-24T09:34:23;96606.97;;;15.07;100.00
57232;BME280;43488;46.934;8.276;2023-05-24T09:36:51;96606.03;;;15.25;100.00
57232;BME280;43488;46.934;8.276;2023-05-24T09:39:18;96603.00;;;15.33;100.00
57232;BME280;43488;46.934;8.276;2023-05-24T09:41:52;96605.53;;;15.40;100.00
57232;BME280;43488;46.934;8.276;2023-05-24T09:44:26;96604.31;;;15.19;100.00
57232;BME280;43488;46.934;8.276;2023-05-24T09:47:02;96607.13;;;15.01;100.00
57232;BME280;43488;46.934;8.276;2023-05-24T09:49:31;96605.25;;;15.13;100.00
57232;BME280;43488;46.934;8.276;2023-05-24T09:52:01;96606.50;;;15.22;100.00
57232;BME280;43488;46.934;8.276;2023-05-24T09:54:31;96603.38;;;15.25;100.00
57232;BME280;43488;46.934;8.276;2023-05-24T09:57:00;96609.47;;;15.26;100.00
57232;BME280;43488;46.934;8.276;2023-05-24T09:59:32;96604.44;;;15.13;100.00
57232;BME280;43488;46.934;8.276;2023-05-24T10:02:10;96603.06;;;15.10;100.00
57232;BME280;43488;46.934;8.276;2023-05-24T10:04:38;96607.06;;;15.24;100.00
57232;BME280;43488;46.934;8.276;2023-05-24T10:07:07;96609.59;;;15.31;100.00
57232;BME280;43488;46.934;8.276;2023-05-24T10:09:34;96613.53;;;15.28;100.00
57232;BME280;43488;46.934;8.276;2023-05-24T10:12:05;96612.50;;;15.29;100.00
57232;BME280;43488;46.934;8.276;2023-05-24T10:14:35;96611.31;;;15.37;100.00
57232;BME280;43488;46.934;8.276;2023-05-24T10:17:07;96605.59;;;15.57;100.00
57232;BME280;43488;46.934;8.276;2023-05-24T10:19:35;96603.84;;;15.74;98.96
57232;BME280;43488;46.934;8.276;2023-05-24T10:22:06;96612.59;;;15.75;100.00
57232;BME280;43488;46.934;8.276;2023-05-24T10:24:46;96613.59;;;15.85;99.62
57232;BME280;43488;46.934;8.276;2023-05-24T10:27:22;96604.09;;;15.73;99.05
57232;BME280;43488;46.934;8.276;2023-05-24T10:30:09;96609.88;;;15.58;99.34
57232;BME280;43488;46.934;8.276;2023-05-24T10:32:39;96598.88;;;15.26;100.00
57232;BME280;43488;46.934;8.276;2023-05-24T10:35:09;96605.88;;;15.44;100.00
57232;BME280;43488;46.934;8.276;2023-05-24T10:37:40;96609.34;;;15.32;100.00
57232;BME280;43488;46.934;8.276;2023-05-24T10:40:22;96606.47;;;15.34;100.00
57232;BME280;43488;46.934;8.276;2023-05-24T10:42:52;96606.53;;;15.11;100.00
57232;BME280;43488;46.934;8.276;2023-05-24T10:47:52;96604.72;;;15.40;100.00
57232;BME280;43488;46.934;8.276;2023-05-24T10:50:22;96600.47;;;15.39;100.00
57232;BME280;43488;46.934;8.276;2023-05-24T10:52:51;96608.03;;;15.58;100.00
57232;BME280;43488;46.934;8.276;2023-05-24T10:55:57;96603.50;;;15.59;99.67
57232;BME280;43488;46.934;8.276;2023-05-24T11:01:31;96609.34;;;15.32;100.00
57232;BME280;43488;46.934;8.276;2023-05-24T11:04:10;96608.88;;;15.35;100.00
57232;BME280;43488;46.934;8.276;2023-05-24T11:06:59;96603.84;;;15.22;98.81
57232;BME280;43488;46.934;8.276;2023-05-24T11:09:28;96600.88;;;15.07;100.00
57232;BME280;43488;46.934;8.276;2023-05-24T11:12:06;96603.19;;;15.03;100.00
57232;BME280;43488;46.934;8.276;2023-05-24T11:14:38;96602.28;;;15.10;100.00
57232;BME280;43488;46.934;8.276;2023-05-24T11:17:07;96601.22;;;15.11;99.85
57232;BME280;43488;46.934;8.276;2023-05-24T11:19:52;96593.19;;;14.70;100.00
57232;BME280;43488;46.934;8.276;2023-05-24T11:22:24;96602.50;;;14.61;100.00
57232;BME280;43488;46.934;8.276;2023-05-24T11:24:52;96610.03;;;14.64;100.00
57232;BME280;43488;46.934;8.276;2023-05-24T11:27:20;96613.13;;;14.73;100.00
57232;BME280;43488;46.934;8.276;2023-05-24T11:29:49;96605.06;;;14.56;100.00
57232;BME280;43488;46.934;8.276;2023-05-24T11:32:19;96596.66;;;14.47;100.00
57232;BME280;43488;46.934;8.276;2023-05-24T11:34:47;96602.88;;;14.65;100.00
57232;BME280;43488;46.934;8.276;2023-05-24T11:37:15;96599.28;;;14.71;100.00
57232;BME280;43488;46.934;8.276;2023-05-24T11:39:42;96603.09;;;14.51;100.00
57232;BME280;43488;46.934;8.276;2023-05-24T11:42:10;96600.34;;;14.58;100.00
57232;BME280;43488;46.934;8.276;2023-05-24T11:44:37;96598.25;;;14.60;100.00
57232;BME280;43488;46.934;8.276;2023-05-24T11:47:07;96601.53;;;14.44;100.00
57232;BME280;43488;46.934;8.276;2023-05-24T11:49:35;96604.59;;;14.59;100.00
57232;BME280;43488;46.934;8.276;2023-05-24T11:52:02;96597.56;;;14.53;100.00
57232;BME280;43488;46.934;8.276;2023-05-24T11:54:30;96596.88;;;14.46;100.00
57232;BME280;43488;46.934;8.276;2023-05-24T11:57:00;96601.44;;;14.27;100.00
57232;BME280;43488;46.934;8.276;2023-05-24T11:59:28;96603.06;;;14.40;100.00
57232;BME280;43488;46.934;8.276;2023-05-24T12:02:02;96605.38;;;14.36;100.00
57232;BME280;43488;46.934;8.276;2023-05-24T12:04:31;96603.88;;;14.52;100.00
57232;BME280;43488;46.934;8.276;2023-05-24T12:07:00;96594.47;;;14.56;100.00
57232;BME280;43488;46.934;8.276;2023-05-24T12:09:28;96606.56;;;14.64;99.70
57232;BME280;43488;46.934;8.276;2023-05-24T12:11:57;96595.50;;;14.55;99.74
57232;BME280;43488;46.934;8.276;2023-05-24T12:14:29;96596.06;;;14.69;99.54
57232;BME280;43488;46.934;8.276;2023-05-24T12:16:59;96603.31;;;14.62;100.00
57232;BME280;43488;46.934;8.276;2023-05-24T12:19:32;96593.63;;;14.79;97.41
57232;BME280;43488;46.934;8.276;2023-05-24T12:22:06;96598.94;;;14.67;98.11
57232;BME280;43488;46.934;8.276;2023-05-24T12:24:36;96604.00;;;14.69;100.00
57232;BME280;43488;46.934;8.276;2023-05-24T12:27:04;96604.19;;;14.44;98.34
57232;BME280;43488;46.934;8.276;2023-05-24T12:29:36;96600.91;;;14.48;99.19
57232;BME280;43488;46.934;8.276;2023-05-24T12:32:05;96606.84;;;14.44;97.81
57232;BME280;43488;46.934;8.276;2023-05-24T12:34:42;96606.59;;;14.22;100.00
57232;BME280;43488;46.934;8.276;2023-05-24T12:37:11;96614.38;;;14.05;100.00
57232;BME280;43488;46.934;8.276;2023-05-24T12:39:38;96608.28;;;14.05;100.00
57232;BME280;43488;46.934;8.276;2023-05-24T12:42:10;96607.41;;;14.22;100.00
57232;BME280;43488;46.934;8.276;2023-05-24T12:44:38;96606.19;;;14.07;100.00
57232;BME280;43488;46.934;8.276;2023-05-24T12:47:07;96608.75;;;13.72;100.00
57232;BME280;43488;46.934;8.276;2023-05-24T12:49:35;96607.72;;;13.73;100.00
57232;BME280;43488;46.934;8.276;2023-05-24T12:52:02;96602.28;;;13.68;100.00
57232;BME280;43488;46.934;8.276;2023-05-24T12:54:30;96605.25;;;13.59;100.00
57232;BME280;43488;46.934;8.276;2023-05-24T12:56:58;96610.56;;;13.71;100.00
57232;BME280;43488;46.934;8.276;2023-05-24T12:59:27;96610.91;;;13.63;100.00
57232;BME280;43488;46.934;8.276;2023-05-24T13:01:54;96606.28;;;13.58;100.00
57232;BME280;43488;46.934;8.276;2023-05-24T13:04:23;96610.72;;;13.46;100.00
57232;BME280;43488;46.934;8.276;2023-05-24T13:06:52;96613.63;;;13.56;100.00
57232;BME280;43488;46.934;8.276;2023-05-24T13:09:19;96608.00;;;13.83;100.00
57232;BME280;43488;46.934;8.276;2023-05-24T13:11:49;96611.25;;;13.66;100.00
57232;BME280;43488;46.934;8.276;2023-05-24T13:14:18;96602.03;;;13.57;100.00
57232;BME280;43488;46.934;8.276;2023-05-24T13:16:45;96609.38;;;13.55;100.00
57232;BME280;43488;46.934;8.276;2023-05-24T13:19:13;96603.72;;;13.52;100.00